This is the latest recevied weather packets stored in our database for station/object KG4ZVW. If no packets are shown the sender has not sent any weather packets the latest 10 day(s).
| Time | Temp. | Humidity | Pressure | Rain* | Wind** | Luminosity | Snow |
|---|---|---|---|---|---|---|---|
| 1777242509 | 25.56° C | 69% | 1010 hPa | 0 mm | - | 39 W/m² | - |
| 1777242208 | 26.11° C | 70% | 1009.8 hPa | 0 mm | - | 40 W/m² | - |
| 1777241906 | 26.67° C | 70% | 1009.8 hPa | 0 mm | - | 39 W/m² | - |
| 1777241621 | 26.67° C | 70% | 1009.8 hPa | 0 mm | - | 37 W/m² | - |
| 1777241316 | 27.22° C | 69% | 1009.5 hPa | 0 mm | - | 60 W/m² | - |
| 1777241010 | 27.22° C | 69% | 1009.5 hPa | 0 mm | - | 67 W/m² | - |
| 1777240705 | 27.78° C | 69% | 1009.5 hPa | 0 mm | - | 334 W/m² | - |
| 1777240405 | 27.78° C | 67% | 1009.3 hPa | 0 mm | - | 350 W/m² | - |
| 1777240120 | 28.33° C | 67% | 1009.3 hPa | 0 mm | - | 376 W/m² | - |
| 1777239815 | 28.89° C | 67% | 1009.3 hPa | 0 mm | - | 387 W/m² | - |
| 1777239512 | 28.89° C | 67% | 1009.4 hPa | 0 mm | - | 446 W/m² | - |
| 1777239207 | 29.44° C | 65% | 1009.4 hPa | 0 mm | - | 454 W/m² | - |
| 1777238902 | 30° C | 64% | 1009.4 hPa | 0 mm | - | 397 W/m² | - |
| 1777238620 | 30° C | 61% | 1009.4 hPa | 0 mm | - | 570 W/m² | - |
| 1777238317 | 30° C | 51% | 1009.4 hPa | 0 mm | - | 255 W/m² | - |
| 1777238012 | 30° C | 51% | 1009.4 hPa | 0 mm | - | 216 W/m² | - |
| 1777237709 | 30° C | 52% | 1009.3 hPa | 0 mm | - | 218 W/m² | - |
| 1777237406 | 30° C | 54% | 1009.3 hPa | 0 mm | - | 223 W/m² | - |
| 1777237123 | 30° C | 55% | 1009.3 hPa | 0 mm | - | 225 W/m² | - |
| 1777236819 | 30° C | 55% | 1008.9 hPa | 0 mm | - | 167 W/m² | - |
| 1777236514 | 29.44° C | 56% | 1008.9 hPa | 0 mm | - | 148 W/m² | - |
| 1777236211 | 30° C | 55% | 1008.9 hPa | 0 mm | - | 128 W/m² | - |
| 1777235924 | 30° C | 54% | 1008.8 hPa | 0 mm | - | 156 W/m² | - |
| 1777235619 | 30.56° C | 55% | 1008.8 hPa | 0 mm | - | 214 W/m² | - |
| 1777235314 | 30° C | 57% | 1008.8 hPa | 0 mm | - | 213 W/m² | - |
* Rain latest hour (hover to see other rain measurements)
** Current wind speed in m/s (hover to see current wind gust speed)